OKPDS EPGL-EPKK
Flight info
| Callsign | OKPDS |
|---|---|
| Flight time | 1h 24m |
| Altitude | 8000 |
| Route | IBEKA DCT USALO DCT KAK |
| Aircraft | P06T/L-SBDGRY/S |
Departure
| Time | 2026-04-20 18:19 |
|---|---|
| Airport | Gliwice-Trynek Airfield (EPGL) |
Arrival
| Time | 2026-04-20 19:43 |
|---|---|
| Airport | Kraków John Paul II International Airport (EPKK) |
| Time | Latitude | Longitude | Altitude | Speed | Heading |
|---|---|---|---|---|---|
| 2026-04-20 18:17 | 50.26753 | 18.67838 | 866 ft | 0 kts | 268° |
| 2026-04-20 18:18 | 50.26752 | 18.67735 | 866 ft | 39 kts | 270° |
| 2026-04-20 18:18 | 50.26730 | 18.67007 | 926 ft | 81 kts | 268° |
| 2026-04-20 18:18 | 50.26703 | 18.66125 | 1164 ft | 82 kts | 269° |
| 2026-04-20 18:19 | 50.26678 | 18.65221 | 1438 ft | 87 kts | 271° |
| 2026-04-20 18:19 | 50.26670 | 18.64106 | 1542 ft | 114 kts | 268° |
| 2026-04-20 18:19 | 50.26348 | 18.62951 | 1694 ft | 120 kts | 224° |
| 2026-04-20 18:19 | 50.25615 | 18.62509 | 1939 ft | 114 kts | 173° |
| 2026-04-20 18:20 | 50.24936 | 18.63079 | 2117 ft | 111 kts | 124° |
| 2026-04-20 18:20 | 50.24516 | 18.64063 | 2362 ft | 107 kts | 110° |
| 2026-04-20 18:20 | 50.24473 | 18.65180 | 2610 ft | 103 kts | 84° |
| 2026-04-20 18:20 | 50.24485 | 18.66287 | 2861 ft | 101 kts | 86° |
| 2026-04-20 18:21 | 50.24497 | 18.67379 | 3113 ft | 100 kts | 86° |
| 2026-04-20 18:21 | 50.24505 | 18.68465 | 3373 ft | 100 kts | 85° |
| 2026-04-20 18:21 | 50.24506 | 18.69550 | 3626 ft | 100 kts | 85° |
| 2026-04-20 18:21 | 50.24398 | 18.70630 | 3855 ft | 105 kts | 115° |
| 2026-04-20 18:22 | 50.23805 | 18.71284 | 4040 ft | 109 kts | 166° |
| 2026-04-20 18:22 | 50.23084 | 18.71544 | 4297 ft | 106 kts | 146° |
| 2026-04-20 18:22 | 50.22508 | 18.72239 | 4562 ft | 104 kts | 143° |
| 2026-04-20 18:22 | 50.21919 | 18.72888 | 4824 ft | 103 kts | 141° |
| 2026-04-20 18:23 | 50.21338 | 18.73541 | 4998 ft | 111 kts | 142° |
| 2026-04-20 18:23 | 50.20662 | 18.74303 | 5013 ft | 127 kts | 143° |
| 2026-04-20 18:23 | 50.19909 | 18.75142 | 5009 ft | 137 kts | 143° |
| 2026-04-20 18:23 | 50.19120 | 18.76022 | 5010 ft | 141 kts | 143° |
| 2026-04-20 18:24 | 50.18313 | 18.76920 | 5011 ft | 143 kts | 143° |
| 2026-04-20 18:24 | 50.17499 | 18.77829 | 5008 ft | 144 kts | 143° |
| 2026-04-20 18:24 | 50.16679 | 18.78741 | 5005 ft | 145 kts | 143° |
| 2026-04-20 18:24 | 50.15864 | 18.79647 | 5093 ft | 139 kts | 143° |
| 2026-04-20 18:25 | 50.15104 | 18.80493 | 5286 ft | 130 kts | 143° |
| 2026-04-20 18:25 | 50.14381 | 18.81297 | 5483 ft | 125 kts | 143° |
| 2026-04-20 18:25 | 50.13681 | 18.82077 | 5679 ft | 122 kts | 143° |
| 2026-04-20 18:25 | 50.13005 | 18.82828 | 5878 ft | 120 kts | 142° |
| 2026-04-20 18:26 | 50.12332 | 18.83577 | 6088 ft | 118 kts | 143° |
| 2026-04-20 18:26 | 50.11667 | 18.84318 | 6285 ft | 117 kts | 143° |
| 2026-04-20 18:26 | 50.11007 | 18.85049 | 6487 ft | 116 kts | 143° |
| 2026-04-20 18:26 | 50.10353 | 18.85777 | 6681 ft | 115 kts | 143° |
| 2026-04-20 18:27 | 50.09703 | 18.86497 | 6882 ft | 114 kts | 143° |
| 2026-04-20 18:27 | 50.09058 | 18.87213 | 7078 ft | 114 kts | 143° |
| 2026-04-20 18:27 | 50.08415 | 18.87926 | 7276 ft | 113 kts | 143° |
| 2026-04-20 18:27 | 50.07778 | 18.88633 | 7476 ft | 112 kts | 143° |
| 2026-04-20 18:28 | 50.07143 | 18.89336 | 7680 ft | 112 kts | 144° |
| 2026-04-20 18:28 | 50.06512 | 18.90036 | 7879 ft | 111 kts | 144° |
| 2026-04-20 18:28 | 50.05878 | 18.90738 | 8019 ft | 117 kts | 144° |
| 2026-04-20 18:28 | 50.05173 | 18.91518 | 8036 ft | 130 kts | 144° |
| 2026-04-20 18:29 | 50.04410 | 18.92365 | 8035 ft | 138 kts | 144° |
| 2026-04-20 18:29 | 50.03611 | 18.93247 | 8031 ft | 143 kts | 144° |
| 2026-04-20 18:29 | 50.02810 | 18.94190 | 8029 ft | 145 kts | 132° |
| 2026-04-20 18:29 | 50.02473 | 18.95609 | 8013 ft | 140 kts | 83° |
| 2026-04-20 18:30 | 50.02698 | 18.97040 | 8021 ft | 139 kts | 77° |
| 2026-04-20 18:30 | 50.02743 | 18.98554 | 8027 ft | 141 kts | 84° |
| 2026-04-20 18:30 | 50.02779 | 19.00078 | 8027 ft | 141 kts | 84° |
| 2026-04-20 18:30 | 50.02805 | 19.01606 | 8028 ft | 141 kts | 84° |
| 2026-04-20 18:31 | 50.02832 | 19.03138 | 8032 ft | 142 kts | 84° |
| 2026-04-20 18:31 | 50.02857 | 19.04669 | 8029 ft | 142 kts | 84° |
| 2026-04-20 18:31 | 50.02870 | 19.05680 | 8029 ft | 140 kts | 85° |
| 2026-04-20 18:31 | 50.02898 | 19.07188 | 8028 ft | 139 kts | 84° |
| 2026-04-20 18:32 | 50.02929 | 19.09179 | 7974 ft | 141 kts | 84° |
| 2026-04-20 18:32 | 50.02956 | 19.10773 | 7763 ft | 151 kts | 85° |
| 2026-04-20 18:32 | 50.02975 | 19.12387 | 7588 ft | 146 kts | 85° |
| 2026-04-20 18:32 | 50.02987 | 19.13443 | 7471 ft | 143 kts | 84° |
| 2026-04-20 18:33 | 50.03008 | 19.14948 | 7316 ft | 138 kts | 84° |
| 2026-04-20 18:33 | 50.03032 | 19.16430 | 7159 ft | 136 kts | 84° |
| 2026-04-20 18:33 | 50.03054 | 19.17897 | 7005 ft | 135 kts | 84° |
| 2026-04-20 18:33 | 50.03075 | 19.19352 | 6856 ft | 134 kts | 84° |
| 2026-04-20 18:34 | 50.03097 | 19.20809 | 6700 ft | 134 kts | 84° |
| 2026-04-20 18:34 | 50.03117 | 19.22254 | 6557 ft | 134 kts | 84° |
| 2026-04-20 18:34 | 50.03138 | 19.23697 | 6405 ft | 133 kts | 84° |
| 2026-04-20 18:34 | 50.03158 | 19.25139 | 6245 ft | 133 kts | 84° |
| 2026-04-20 18:35 | 50.03174 | 19.26577 | 6087 ft | 133 kts | 85° |
| 2026-04-20 18:35 | 50.03195 | 19.28008 | 5930 ft | 132 kts | 84° |
| 2026-04-20 18:35 | 50.03215 | 19.29429 | 5773 ft | 132 kts | 85° |
| 2026-04-20 18:35 | 50.03235 | 19.30841 | 5604 ft | 133 kts | 85° |
| 2026-04-20 18:36 | 50.03255 | 19.32293 | 5404 ft | 135 kts | 85° |
| 2026-04-20 18:36 | 50.03275 | 19.33763 | 5199 ft | 136 kts | 85° |
| 2026-04-20 18:36 | 50.03294 | 19.35239 | 4995 ft | 137 kts | 85° |
| 2026-04-20 18:36 | 50.03314 | 19.36719 | 4792 ft | 137 kts | 86° |
| 2026-04-20 18:37 | 50.03332 | 19.38193 | 4582 ft | 136 kts | 85° |
| 2026-04-20 18:37 | 50.03352 | 19.39663 | 4370 ft | 136 kts | 86° |
| 2026-04-20 18:37 | 50.03370 | 19.41129 | 4164 ft | 135 kts | 86° |
| 2026-04-20 18:37 | 50.03388 | 19.42572 | 3990 ft | 133 kts | 86° |
| 2026-04-20 18:38 | 50.03405 | 19.43945 | 3983 ft | 123 kts | 86° |
| 2026-04-20 18:38 | 50.03423 | 19.45262 | 3916 ft | 121 kts | 86° |
| 2026-04-20 18:38 | 50.03437 | 19.46550 | 3897 ft | 116 kts | 85° |
| 2026-04-20 18:38 | 50.03454 | 19.47775 | 3914 ft | 109 kts | 83° |
| 2026-04-20 18:39 | 50.03604 | 19.48875 | 3920 ft | 101 kts | 73° |
| 2026-04-20 18:39 | 50.03756 | 19.49949 | 3856 ft | 104 kts | 74° |
| 2026-04-20 18:39 | 50.03922 | 19.51103 | 3661 ft | 113 kts | 75° |
| 2026-04-20 18:39 | 50.04087 | 19.52265 | 3462 ft | 108 kts | 74° |
| 2026-04-20 18:40 | 50.04249 | 19.53401 | 3257 ft | 107 kts | 75° |
| 2026-04-20 18:40 | 50.04408 | 19.54529 | 3050 ft | 106 kts | 75° |
| 2026-04-20 18:40 | 50.04560 | 19.55598 | 2990 ft | 95 kts | 76° |
| 2026-04-20 18:40 | 50.04693 | 19.56547 | 2980 ft | 87 kts | 76° |
| 2026-04-20 18:41 | 50.04817 | 19.57429 | 2977 ft | 81 kts | 76° |
| 2026-04-20 18:41 | 50.04967 | 19.58240 | 2982 ft | 78 kts | 81° |
| 2026-04-20 18:41 | 50.05026 | 19.59100 | 2993 ft | 78 kts | 82° |
| 2026-04-20 18:41 | 50.05126 | 19.59968 | 3042 ft | 85 kts | 77° |
| 2026-04-20 18:42 | 50.05247 | 19.60868 | 2970 ft | 82 kts | 73° |
| 2026-04-20 18:42 | 50.05378 | 19.61689 | 2893 ft | 75 kts | 72° |
| 2026-04-20 18:42 | 50.05502 | 19.62457 | 2798 ft | 70 kts | 73° |
| 2026-04-20 18:42 | 50.05635 | 19.63180 | 2685 ft | 73 kts | 70° |
| 2026-04-20 18:43 | 50.05756 | 19.63980 | 2750 ft | 80 kts | 81° |
| 2026-04-20 18:43 | 50.05910 | 19.64900 | 2656 ft | 92 kts | 71° |
| 2026-04-20 18:43 | 50.06047 | 19.65886 | 2587 ft | 91 kts | 79° |
| 2026-04-20 18:43 | 50.06147 | 19.66789 | 2378 ft | 87 kts | 77° |
| 2026-04-20 18:44 | 50.06301 | 19.67775 | 2038 ft | 90 kts | 75° |
| 2026-04-20 18:44 | 50.06424 | 19.68650 | 1898 ft | 81 kts | 82° |
| 2026-04-20 18:44 | 50.06541 | 19.69521 | 1730 ft | 78 kts | 79° |
| 2026-04-20 18:44 | 50.06638 | 19.70305 | 1634 ft | 71 kts | 81° |
| 2026-04-20 18:45 | 50.06717 | 19.71071 | 1475 ft | 72 kts | 77° |
| 2026-04-20 18:45 | 50.06813 | 19.71828 | 1365 ft | 67 kts | 77° |
| 2026-04-20 18:45 | 50.06910 | 19.72643 | 1357 ft | 87 kts | 71° |
| 2026-04-20 18:45 | 50.07036 | 19.73534 | 1328 ft | 78 kts | 73° |
| 2026-04-20 18:46 | 50.07161 | 19.74316 | 1209 ft | 72 kts | 75° |
| 2026-04-20 18:46 | 50.07267 | 19.75079 | 1059 ft | 73 kts | 71° |
| 2026-04-20 18:46 | 50.07386 | 19.75846 | 969 ft | 79 kts | 72° |
| 2026-04-20 18:46 | 50.07518 | 19.76700 | 884 ft | 79 kts | 73° |
| 2026-04-20 18:47 | 50.07631 | 19.77491 | 799 ft | 70 kts | 75° |
| 2026-04-20 18:47 | 50.07715 | 19.78166 | 782 ft | 62 kts | 70° |
| 2026-04-20 18:47 | 50.07826 | 19.78959 | 995 ft | 77 kts | 76° |
| 2026-04-20 18:47 | 50.07921 | 19.79796 | 1297 ft | 81 kts | 78° |
| 2026-04-20 18:48 | 50.08043 | 19.80688 | 1660 ft | 88 kts | 74° |
| 2026-04-20 18:48 | 50.08210 | 19.81562 | 2058 ft | 86 kts | 71° |
| 2026-04-20 18:48 | 50.08402 | 19.82546 | 2240 ft | 103 kts | 73° |
| 2026-04-20 18:48 | 50.08600 | 19.83670 | 2453 ft | 109 kts | 74° |
| 2026-04-20 18:49 | 50.08799 | 19.84823 | 2684 ft | 111 kts | 74° |
| 2026-04-20 18:49 | 50.09000 | 19.85989 | 2906 ft | 112 kts | 74° |
| 2026-04-20 18:49 | 50.09199 | 19.87171 | 3121 ft | 114 kts | 74° |
| 2026-04-20 18:49 | 50.09401 | 19.88367 | 3337 ft | 115 kts | 74° |
| 2026-04-20 18:50 | 50.09600 | 19.89576 | 3542 ft | 115 kts | 74° |
| 2026-04-20 18:50 | 50.09798 | 19.90789 | 3748 ft | 116 kts | 73° |
| 2026-04-20 18:50 | 50.09965 | 19.92015 | 3949 ft | 117 kts | 86° |
| 2026-04-20 18:50 | 50.09605 | 19.93153 | 4122 ft | 125 kts | 136° |
| 2026-04-20 18:51 | 50.08793 | 19.93663 | 4326 ft | 127 kts | 160° |
| 2026-04-20 18:51 | 50.07966 | 19.94139 | 4542 ft | 127 kts | 156° |
| 2026-04-20 18:51 | 50.07140 | 19.94630 | 4750 ft | 127 kts | 156° |
| 2026-04-20 18:51 | 50.06315 | 19.95128 | 4962 ft | 127 kts | 156° |
| 2026-04-20 18:52 | 50.05465 | 19.95644 | 4993 ft | 136 kts | 156° |
| 2026-04-20 18:52 | 50.04597 | 19.96177 | 4997 ft | 131 kts | 156° |
| 2026-04-20 18:52 | 50.03758 | 19.96695 | 4995 ft | 129 kts | 156° |
| 2026-04-20 18:52 | 50.02927 | 19.97203 | 4990 ft | 128 kts | 156° |
| 2026-04-20 18:53 | 50.02070 | 19.97504 | 4977 ft | 129 kts | 186° |
| 2026-04-20 18:53 | 50.01330 | 19.96819 | 4973 ft | 125 kts | 235° |
| 2026-04-20 18:53 | 50.01059 | 19.95586 | 4987 ft | 120 kts | 260° |
| 2026-04-20 18:53 | 50.00817 | 19.94337 | 4994 ft | 122 kts | 256° |
| 2026-04-20 18:54 | 50.00565 | 19.93081 | 4994 ft | 122 kts | 256° |
| 2026-04-20 18:54 | 50.00306 | 19.91830 | 4993 ft | 122 kts | 256° |
| 2026-04-20 18:54 | 50.00048 | 19.90579 | 4997 ft | 121 kts | 256° |
| 2026-04-20 18:54 | 49.99788 | 19.89334 | 4996 ft | 121 kts | 256° |
| 2026-04-20 18:55 | 49.99536 | 19.88089 | 4995 ft | 121 kts | 259° |
| 2026-04-20 18:55 | 49.99351 | 19.86818 | 4998 ft | 121 kts | 261° |
| 2026-04-20 18:55 | 49.99158 | 19.85549 | 4998 ft | 120 kts | 261° |
| 2026-04-20 18:55 | 49.98965 | 19.84282 | 4999 ft | 121 kts | 261° |
| 2026-04-20 18:56 | 49.98773 | 19.83016 | 4996 ft | 120 kts | 261° |
| 2026-04-20 18:56 | 49.98582 | 19.81754 | 4996 ft | 120 kts | 261° |
| 2026-04-20 18:56 | 49.98390 | 19.80495 | 4994 ft | 120 kts | 261° |
| 2026-04-20 18:56 | 49.98201 | 19.79233 | 4995 ft | 120 kts | 261° |
| 2026-04-20 18:57 | 49.98011 | 19.77971 | 4993 ft | 120 kts | 261° |
| 2026-04-20 18:57 | 49.97820 | 19.76730 | 4994 ft | 120 kts | 261° |
| 2026-04-20 18:57 | 49.97629 | 19.75472 | 4993 ft | 119 kts | 261° |
| 2026-04-20 18:57 | 49.97438 | 19.74216 | 4994 ft | 119 kts | 261° |
| 2026-04-20 18:58 | 49.97247 | 19.72962 | 4991 ft | 119 kts | 261° |
| 2026-04-20 18:58 | 49.97057 | 19.71711 | 4991 ft | 119 kts | 261° |
| 2026-04-20 18:58 | 49.96865 | 19.70465 | 4990 ft | 118 kts | 261° |
| 2026-04-20 18:58 | 49.96675 | 19.69220 | 4988 ft | 119 kts | 261° |
| 2026-04-20 18:59 | 49.96484 | 19.67974 | 4993 ft | 119 kts | 261° |
| 2026-04-20 18:59 | 49.96290 | 19.66727 | 4989 ft | 119 kts | 261° |
| 2026-04-20 18:59 | 49.96099 | 19.65476 | 4992 ft | 119 kts | 261° |
| 2026-04-20 18:59 | 49.95905 | 19.64221 | 4990 ft | 120 kts | 261° |
| 2026-04-20 19:00 | 49.95711 | 19.62968 | 4996 ft | 119 kts | 261° |
| 2026-04-20 19:00 | 49.95518 | 19.61733 | 4993 ft | 119 kts | 261° |
| 2026-04-20 19:00 | 49.95319 | 19.60469 | 4994 ft | 119 kts | 261° |
| 2026-04-20 19:00 | 49.95125 | 19.59240 | 4988 ft | 119 kts | 261° |
| 2026-04-20 19:01 | 49.94929 | 19.57991 | 4987 ft | 119 kts | 261° |
| 2026-04-20 19:01 | 49.94731 | 19.56737 | 4990 ft | 120 kts | 261° |
| 2026-04-20 19:01 | 49.94533 | 19.55484 | 4984 ft | 119 kts | 261° |
| 2026-04-20 19:01 | 49.94336 | 19.54238 | 4984 ft | 119 kts | 261° |
| 2026-04-20 19:02 | 49.94138 | 19.52991 | 4981 ft | 119 kts | 261° |
| 2026-04-20 19:02 | 49.93941 | 19.51739 | 4982 ft | 120 kts | 261° |
| 2026-04-20 19:02 | 49.93742 | 19.50483 | 4985 ft | 120 kts | 261° |
| 2026-04-20 19:02 | 49.93545 | 19.49224 | 4987 ft | 120 kts | 261° |
| 2026-04-20 19:03 | 49.93349 | 19.47972 | 4986 ft | 119 kts | 262° |
| 2026-04-20 19:03 | 49.93482 | 19.46774 | 4921 ft | 116 kts | 307° |
| 2026-04-20 19:03 | 49.94170 | 19.46116 | 4787 ft | 120 kts | 345° |
| 2026-04-20 19:03 | 49.95007 | 19.46128 | 4659 ft | 123 kts | 12° |
| 2026-04-20 19:04 | 49.95850 | 19.46385 | 4534 ft | 124 kts | 6° |
| 2026-04-20 19:04 | 49.96690 | 19.46555 | 4387 ft | 119 kts | 7° |
| 2026-04-20 19:04 | 49.97463 | 19.46711 | 4193 ft | 107 kts | 6° |
| 2026-04-20 19:04 | 49.98188 | 19.46848 | 3997 ft | 103 kts | 7° |
| 2026-04-20 19:05 | 49.98847 | 19.46968 | 3976 ft | 89 kts | 7° |
| 2026-04-20 19:05 | 49.99423 | 19.47074 | 3971 ft | 79 kts | 7° |
| 2026-04-20 19:05 | 49.99947 | 19.47169 | 3977 ft | 73 kts | 6° |
| 2026-04-20 19:05 | 50.00431 | 19.47258 | 3980 ft | 70 kts | 8° |
| 2026-04-20 19:06 | 50.00962 | 19.47359 | 3995 ft | 83 kts | 7° |
| 2026-04-20 19:06 | 50.01563 | 19.47469 | 4001 ft | 91 kts | 7° |
| 2026-04-20 19:06 | 50.02213 | 19.47586 | 3997 ft | 96 kts | 7° |
| 2026-04-20 19:06 | 50.02889 | 19.47723 | 3999 ft | 99 kts | 14° |
| 2026-04-20 19:07 | 50.03413 | 19.48428 | 3949 ft | 105 kts | 63° |
| 2026-04-20 19:07 | 50.03627 | 19.49457 | 4063 ft | 97 kts | 68° |
| 2026-04-20 19:07 | 50.03803 | 19.50482 | 4086 ft | 101 kts | 74° |
| 2026-04-20 19:07 | 50.03947 | 19.51564 | 4051 ft | 105 kts | 74° |
| 2026-04-20 19:08 | 50.04091 | 19.52696 | 4008 ft | 109 kts | 74° |
| 2026-04-20 19:08 | 50.04480 | 19.55089 | 3766 ft | 110 kts | 74° |
| 2026-04-20 19:08 | 50.04644 | 19.56185 | 3587 ft | 102 kts | 75° |
| 2026-04-20 19:09 | 50.04783 | 19.57243 | 3394 ft | 96 kts | 76° |
| 2026-04-20 19:09 | 50.04907 | 19.58247 | 3175 ft | 95 kts | 77° |
| 2026-04-20 19:09 | 50.05036 | 19.59192 | 2982 ft | 75 kts | 76° |
| 2026-04-20 19:09 | 50.05152 | 19.59944 | 2924 ft | 70 kts | 75° |
| 2026-04-20 19:10 | 50.05272 | 19.60708 | 2891 ft | 74 kts | 76° |
| 2026-04-20 19:10 | 50.05377 | 19.61493 | 2897 ft | 76 kts | 78° |
| 2026-04-20 19:10 | 50.05503 | 19.62314 | 2826 ft | 81 kts | 74° |
| 2026-04-20 19:10 | 50.05630 | 19.63189 | 2703 ft | 86 kts | 75° |
| 2026-04-20 19:11 | 50.05748 | 19.64118 | 2537 ft | 90 kts | 77° |
| 2026-04-20 19:11 | 50.05893 | 19.65076 | 2369 ft | 90 kts | 75° |
| 2026-04-20 19:11 | 50.06029 | 19.66015 | 2220 ft | 87 kts | 76° |
| 2026-04-20 19:11 | 50.06148 | 19.66940 | 2109 ft | 89 kts | 75° |
| 2026-04-20 19:12 | 50.06317 | 19.67810 | 2095 ft | 90 kts | 75° |
| 2026-04-20 19:12 | 50.06441 | 19.68711 | 1932 ft | 82 kts | 82° |
| 2026-04-20 19:12 | 50.06530 | 19.69580 | 1758 ft | 81 kts | 80° |
| 2026-04-20 19:12 | 50.06637 | 19.70431 | 1622 ft | 79 kts | 77° |
| 2026-04-20 19:13 | 50.06766 | 19.71254 | 1511 ft | 78 kts | 76° |
| 2026-04-20 19:13 | 50.06884 | 19.72083 | 1378 ft | 79 kts | 76° |
| 2026-04-20 19:13 | 50.06989 | 19.72922 | 1298 ft | 79 kts | 77° |
| 2026-04-20 19:13 | 50.07093 | 19.73776 | 1208 ft | 80 kts | 77° |
| 2026-04-20 19:14 | 50.07192 | 19.74635 | 1101 ft | 80 kts | 75° |
| 2026-04-20 19:14 | 50.07307 | 19.75467 | 1064 ft | 76 kts | 70° |
| 2026-04-20 19:14 | 50.07421 | 19.76175 | 986 ft | 58 kts | 70° |
| 2026-04-20 19:14 | 50.07541 | 19.76898 | 977 ft | 76 kts | 74° |
| 2026-04-20 19:15 | 50.07660 | 19.77676 | 1089 ft | 82 kts | 72° |
| 2026-04-20 19:15 | 50.07776 | 19.78579 | 1333 ft | 83 kts | 77° |
| 2026-04-20 19:15 | 50.07875 | 19.79440 | 1620 ft | 80 kts | 76° |
| 2026-04-20 19:15 | 50.07993 | 19.80301 | 1875 ft | 82 kts | 76° |
| 2026-04-20 19:16 | 50.08111 | 19.81162 | 2128 ft | 81 kts | 77° |
| 2026-04-20 19:16 | 50.08235 | 19.82021 | 2376 ft | 82 kts | 77° |
| 2026-04-20 19:16 | 50.08360 | 19.82913 | 2596 ft | 90 kts | 77° |
| 2026-04-20 19:16 | 50.08503 | 19.83918 | 2837 ft | 99 kts | 77° |
| 2026-04-20 19:17 | 50.08655 | 19.84984 | 3075 ft | 102 kts | 77° |
| 2026-04-20 19:17 | 50.08811 | 19.86085 | 3317 ft | 105 kts | 77° |
| 2026-04-20 19:17 | 50.08965 | 19.87203 | 3550 ft | 107 kts | 77° |
| 2026-04-20 19:17 | 50.08827 | 19.88329 | 3755 ft | 113 kts | 121° |
| 2026-04-20 19:18 | 50.08132 | 19.88936 | 3971 ft | 119 kts | 162° |
| 2026-04-20 19:18 | 50.07344 | 19.89325 | 4211 ft | 118 kts | 155° |
| 2026-04-20 19:18 | 50.06568 | 19.89759 | 4450 ft | 119 kts | 156° |
| 2026-04-20 19:18 | 50.05791 | 19.90205 | 4693 ft | 119 kts | 156° |
| 2026-04-20 19:19 | 50.05013 | 19.90656 | 4921 ft | 120 kts | 156° |
| 2026-04-20 19:19 | 50.04213 | 19.91126 | 4993 ft | 131 kts | 156° |
| 2026-04-20 19:19 | 50.03337 | 19.91636 | 5002 ft | 137 kts | 156° |
| 2026-04-20 19:19 | 50.02457 | 19.92166 | 5000 ft | 134 kts | 155° |
| 2026-04-20 19:20 | 50.01595 | 19.92683 | 4999 ft | 131 kts | 156° |
| 2026-04-20 19:20 | 50.00745 | 19.93192 | 5001 ft | 130 kts | 156° |
| 2026-04-20 19:20 | 50.00188 | 19.93522 | 4996 ft | 128 kts | 156° |
| 2026-04-20 19:20 | 49.99044 | 19.93409 | 4975 ft | 129 kts | 214° |
| 2026-04-20 19:21 | 49.98670 | 19.92721 | 4972 ft | 125 kts | 246° |
| 2026-04-20 19:21 | 49.98507 | 19.91423 | 4991 ft | 122 kts | 263° |
| 2026-04-20 19:21 | 49.98331 | 19.90128 | 4993 ft | 123 kts | 261° |
| 2026-04-20 19:21 | 49.98149 | 19.88831 | 4993 ft | 123 kts | 261° |
| 2026-04-20 19:22 | 49.97969 | 19.87529 | 4999 ft | 123 kts | 261° |
| 2026-04-20 19:22 | 49.97782 | 19.86227 | 4996 ft | 123 kts | 261° |
| 2026-04-20 19:22 | 49.97598 | 19.84928 | 4998 ft | 123 kts | 261° |
| 2026-04-20 19:22 | 49.97409 | 19.83624 | 4998 ft | 124 kts | 261° |
| 2026-04-20 19:23 | 49.97223 | 19.82325 | 4998 ft | 123 kts | 261° |
| 2026-04-20 19:23 | 49.97035 | 19.81027 | 4999 ft | 123 kts | 261° |
| 2026-04-20 19:23 | 49.96849 | 19.79734 | 4998 ft | 123 kts | 261° |
| 2026-04-20 19:23 | 49.96660 | 19.78444 | 4999 ft | 122 kts | 261° |
| 2026-04-20 19:24 | 49.96473 | 19.77151 | 4999 ft | 122 kts | 261° |
| 2026-04-20 19:24 | 49.96286 | 19.75863 | 4999 ft | 122 kts | 261° |
| 2026-04-20 19:24 | 49.96098 | 19.74568 | 4998 ft | 123 kts | 261° |
| 2026-04-20 19:24 | 49.95908 | 19.73276 | 5001 ft | 122 kts | 261° |
| 2026-04-20 19:25 | 49.95718 | 19.71989 | 5000 ft | 122 kts | 261° |
| 2026-04-20 19:25 | 49.95529 | 19.70699 | 4998 ft | 122 kts | 261° |
| 2026-04-20 19:25 | 49.95338 | 19.69415 | 4998 ft | 122 kts | 261° |
| 2026-04-20 19:25 | 49.95148 | 19.68138 | 4997 ft | 121 kts | 261° |
| 2026-04-20 19:26 | 49.94961 | 19.66875 | 4996 ft | 122 kts | 261° |
| 2026-04-20 19:26 | 49.94773 | 19.65599 | 4997 ft | 121 kts | 261° |
| 2026-04-20 19:26 | 49.94581 | 19.64322 | 4997 ft | 121 kts | 261° |
| 2026-04-20 19:26 | 49.94387 | 19.63045 | 4996 ft | 121 kts | 261° |
| 2026-04-20 19:27 | 49.94195 | 19.61771 | 4994 ft | 121 kts | 261° |
| 2026-04-20 19:27 | 49.94000 | 19.60501 | 4997 ft | 121 kts | 261° |
| 2026-04-20 19:27 | 49.93806 | 19.59235 | 4998 ft | 120 kts | 261° |
| 2026-04-20 19:27 | 49.93611 | 19.57972 | 4996 ft | 121 kts | 261° |
| 2026-04-20 19:28 | 49.93415 | 19.56699 | 4994 ft | 121 kts | 261° |
| 2026-04-20 19:28 | 49.93219 | 19.55432 | 4991 ft | 121 kts | 261° |
| 2026-04-20 19:28 | 49.93021 | 19.54160 | 5002 ft | 122 kts | 261° |
| 2026-04-20 19:28 | 49.92824 | 19.52882 | 4998 ft | 121 kts | 261° |
| 2026-04-20 19:29 | 49.92690 | 19.51606 | 4986 ft | 118 kts | 280° |
| 2026-04-20 19:29 | 49.93102 | 19.50594 | 4985 ft | 111 kts | 328° |
| 2026-04-20 19:29 | 49.93745 | 19.49937 | 4992 ft | 111 kts | 326° |
| 2026-04-20 19:29 | 49.94372 | 19.49228 | 4991 ft | 111 kts | 326° |
| 2026-04-20 19:30 | 49.94999 | 19.48520 | 4995 ft | 112 kts | 326° |
| 2026-04-20 19:30 | 49.95628 | 19.47809 | 4994 ft | 112 kts | 326° |
| 2026-04-20 19:30 | 49.96258 | 19.47100 | 4996 ft | 112 kts | 326° |
| 2026-04-20 19:30 | 49.96888 | 19.46393 | 4993 ft | 112 kts | 326° |
| 2026-04-20 19:31 | 49.97515 | 19.45689 | 4942 ft | 116 kts | 326° |
| 2026-04-20 19:31 | 49.98167 | 19.44959 | 4764 ft | 112 kts | 326° |
| 2026-04-20 19:31 | 49.98791 | 19.44254 | 4578 ft | 109 kts | 326° |
| 2026-04-20 19:31 | 49.99400 | 19.43558 | 4389 ft | 108 kts | 326° |
| 2026-04-20 19:32 | 50.00042 | 19.42973 | 4190 ft | 107 kts | 349° |
| 2026-04-20 19:32 | 50.00741 | 19.43251 | 3999 ft | 105 kts | 32° |
| 2026-04-20 19:32 | 50.01355 | 19.43716 | 3987 ft | 94 kts | 32° |
| 2026-04-20 19:32 | 50.01822 | 19.44370 | 3985 ft | 87 kts | 41° |
| 2026-04-20 19:33 | 50.02262 | 19.44982 | 3984 ft | 83 kts | 40° |
| 2026-04-20 19:33 | 50.02684 | 19.45567 | 3983 ft | 80 kts | 40° |
| 2026-04-20 19:33 | 50.03089 | 19.46148 | 3974 ft | 80 kts | 43° |
| 2026-04-20 19:33 | 50.03476 | 19.46746 | 3986 ft | 78 kts | 43° |
| 2026-04-20 19:34 | 50.03864 | 19.47353 | 4049 ft | 79 kts | 53° |
| 2026-04-20 19:34 | 50.04060 | 19.48195 | 4045 ft | 91 kts | 75° |
| 2026-04-20 19:34 | 50.04197 | 19.49221 | 3981 ft | 102 kts | 71° |
| 2026-04-20 19:34 | 50.04377 | 19.50292 | 3688 ft | 104 kts | 75° |
| 2026-04-20 19:35 | 50.04533 | 19.51288 | 3597 ft | 91 kts | 72° |
| 2026-04-20 19:35 | 50.04730 | 19.52188 | 3466 ft | 86 kts | 71° |
| 2026-04-20 19:35 | 50.04900 | 19.53071 | 3324 ft | 84 kts | 75° |
| 2026-04-20 19:35 | 50.04976 | 19.53967 | 3194 ft | 83 kts | 77° |
| 2026-04-20 19:36 | 50.05150 | 19.54790 | 3108 ft | 77 kts | 71° |
| 2026-04-20 19:36 | 50.05227 | 19.55604 | 2977 ft | 76 kts | 84° |
| 2026-04-20 19:36 | 50.05266 | 19.56394 | 2895 ft | 72 kts | 80° |
| 2026-04-20 19:36 | 50.05368 | 19.57127 | 2833 ft | 68 kts | 74° |
| 2026-04-20 19:37 | 50.05502 | 19.57894 | 2953 ft | 81 kts | 74° |
| 2026-04-20 19:37 | 50.05608 | 19.58809 | 2998 ft | 87 kts | 81° |
| 2026-04-20 19:37 | 50.05696 | 19.59703 | 2971 ft | 79 kts | 79° |
| 2026-04-20 19:37 | 50.05790 | 19.60533 | 2940 ft | 76 kts | 78° |
| 2026-04-20 19:38 | 50.05897 | 19.61261 | 2908 ft | 74 kts | 78° |
| 2026-04-20 19:38 | 50.05985 | 19.62116 | 2707 ft | 83 kts | 81° |
| 2026-04-20 19:38 | 50.06045 | 19.62992 | 2560 ft | 82 kts | 86° |
| 2026-04-20 19:38 | 50.06066 | 19.63842 | 2522 ft | 77 kts | 84° |
| 2026-04-20 19:39 | 50.06065 | 19.64676 | 2397 ft | 77 kts | 83° |
| 2026-04-20 19:39 | 50.06173 | 19.65475 | 2307 ft | 75 kts | 68° |
| 2026-04-20 19:39 | 50.06289 | 19.66270 | 2204 ft | 75 kts | 76° |
| 2026-04-20 19:39 | 50.06399 | 19.67085 | 2089 ft | 79 kts | 76° |
| 2026-04-20 19:40 | 50.06555 | 19.67919 | 1968 ft | 86 kts | 72° |
| 2026-04-20 19:40 | 50.06727 | 19.68855 | 1913 ft | 89 kts | 73° |
| 2026-04-20 19:40 | 50.06859 | 19.69795 | 1840 ft | 87 kts | 79° |
| 2026-04-20 19:40 | 50.06922 | 19.70670 | 1642 ft | 76 kts | 86° |
| 2026-04-20 19:41 | 50.06925 | 19.71464 | 1486 ft | 68 kts | 85° |
| 2026-04-20 19:41 | 50.06927 | 19.72177 | 1426 ft | 65 kts | 81° |
| 2026-04-20 19:41 | 50.06986 | 19.72925 | 1340 ft | 73 kts | 75° |
| 2026-04-20 19:41 | 50.07085 | 19.73693 | 1277 ft | 75 kts | 73° |
| 2026-04-20 19:42 | 50.07184 | 19.74462 | 1177 ft | 70 kts | 69° |
| 2026-04-20 19:42 | 50.07294 | 19.75172 | 1066 ft | 63 kts | 70° |
| 2026-04-20 19:42 | 50.07389 | 19.75824 | 980 ft | 66 kts | 71° |
| 2026-04-20 19:42 | 50.07493 | 19.76511 | 903 ft | 65 kts | 70° |
| 2026-04-20 19:43 | 50.07581 | 19.77127 | 799 ft | 50 kts | 63° |
| 2026-04-20 19:43 | 50.07651 | 19.77546 | 782 ft | 33 kts | 78° |
| 2026-04-20 19:43 | 50.07691 | 19.77878 | 780 ft | 30 kts | 84° |
| 2026-04-20 19:43 | 50.07730 | 19.78129 | 781 ft | 22 kts | 82° |
| 2026-04-20 19:44 | 50.07759 | 19.78362 | 783 ft | 22 kts | 75° |
| 2026-04-20 19:44 | 50.07791 | 19.78591 | 783 ft | 22 kts | 81° |
| 2026-04-20 19:44 | 50.07823 | 19.78826 | 784 ft | 22 kts | 77° |
| 2026-04-20 19:44 | 50.07856 | 19.79068 | 783 ft | 23 kts | 78° |
| 2026-04-20 19:45 | 50.07877 | 19.79176 | 783 ft | 0 kts | 26° |
| 2026-04-20 19:45 | 50.07908 | 19.79167 | 783 ft | 18 kts | 319° |
| 2026-04-20 19:45 | 50.07918 | 19.79090 | 783 ft | 0 kts | 249° |
| 2026-04-20 19:45 | 50.07801 | 19.78977 | 784 ft | 27 kts | 226° |
| 2026-04-20 19:46 | 50.07714 | 19.78859 | 783 ft | 7 kts | 208° |
| 2026-04-20 19:46 | 50.07618 | 19.78875 | 782 ft | 16 kts | 201° |
| 2026-04-20 19:46 | 50.07561 | 19.78779 | 782 ft | 10 kts | 259° |
| 2026-04-20 19:46 | 50.07544 | 19.78654 | 782 ft | 15 kts | 258° |
| 2026-04-20 19:47 | 50.07513 | 19.78416 | 782 ft | 38 kts | 259° |
| 2026-04-20 19:47 | 50.07461 | 19.78091 | 782 ft | 8 kts | 229° |
| 2026-04-20 19:47 | 50.07426 | 19.78093 | 782 ft | 0 kts | 166° |
| 2026-04-20 19:48 | 50.07420 | 19.78098 | 782 ft | 1 kts | 128° |
| 2026-04-20 19:49 | 50.07470 | 19.78096 | 782 ft | 9 kts | 29° |
| 2026-04-20 19:49 | 50.07482 | 19.78196 | 782 ft | 13 kts | 87° |
| 2026-04-20 19:49 | 50.07512 | 19.78428 | 782 ft | 25 kts | 76° |
| 2026-04-20 19:49 | 50.07549 | 19.78692 | 782 ft | 25 kts | 76° |
| 2026-04-20 19:50 | 50.07585 | 19.78953 | 782 ft | 25 kts | 77° |
| 2026-04-20 19:50 | 50.07623 | 19.79134 | 782 ft | 11 kts | 8° |
| 2026-04-20 19:50 | 50.07662 | 19.79122 | 782 ft | 0 kts | 344° |
| 2026-04-20 19:53 | 50.07664 | 19.79096 | 782 ft | 1 kts | 194° |
| 2026-04-20 19:53 | 50.07619 | 19.79198 | 782 ft | 18 kts | 84° |
| 2026-04-20 19:53 | 50.07647 | 19.79397 | 782 ft | 20 kts | 77° |
| 2026-04-20 19:54 | 50.07677 | 19.79614 | 782 ft | 21 kts | 77° |
| 2026-04-20 19:54 | 50.07710 | 19.79842 | 782 ft | 22 kts | 79° |
| 2026-04-20 19:54 | 50.07729 | 19.79985 | 782 ft | 9 kts | 78° |
| 2026-04-20 19:54 | 50.07734 | 19.80031 | 782 ft | 4 kts | 90° |
| 2026-04-20 19:55 | 50.07705 | 19.80071 | 782 ft | 8 kts | 166° |
| 2026-04-20 19:55 | 50.07647 | 19.80060 | 782 ft | 12 kts | 232° |
| 2026-04-20 19:55 | 50.07623 | 19.80029 | 782 ft | 0 kts | 158° |